sensor_id;sensor_type;location;lat;lon;timestamp;P1;durP1;ratioP1;P2;durP2;ratioP2
14241;SDS011;7205;50.864;12.766;2023-06-10T00:02:12;17.20;;;15.30;;
14241;SDS011;7205;50.864;12.766;2023-06-10T00:04:39;13.43;;;12.03;;
14241;SDS011;7205;50.864;12.766;2023-06-10T00:07:06;15.23;;;13.63;;
14241;SDS011;7205;50.864;12.766;2023-06-10T00:09:34;13.57;;;12.17;;
14241;SDS011;7205;50.864;12.766;2023-06-10T00:12:01;11.23;;;9.37;;
14241;SDS011;7205;50.864;12.766;2023-06-10T00:14:28;10.33;;;9.23;;
14241;SDS011;7205;50.864;12.766;2023-06-10T00:16:55;14.03;;;12.70;;
14241;SDS011;7205;50.864;12.766;2023-06-10T00:19:24;15.60;;;13.73;;
14241;SDS011;7205;50.864;12.766;2023-06-10T00:21:51;13.27;;;11.93;;
14241;SDS011;7205;50.864;12.766;2023-06-10T00:24:18;7.43;;;6.90;;
14241;SDS011;7205;50.864;12.766;2023-06-10T00:26:45;8.67;;;7.97;;
14241;SDS011;7205;50.864;12.766;2023-06-10T00:29:12;10.87;;;9.97;;
14241;SDS011;7205;50.864;12.766;2023-06-10T00:31:39;8.47;;;7.17;;
14241;SDS011;7205;50.864;12.766;2023-06-10T00:34:06;9.17;;;8.37;;
14241;SDS011;7205;50.864;12.766;2023-06-10T00:36:35;11.87;;;9.73;;
14241;SDS011;7205;50.864;12.766;2023-06-10T00:39:02;14.53;;;9.33;;
14241;SDS011;7205;50.864;12.766;2023-06-10T00:41:29;11.10;;;9.90;;
14241;SDS011;7205;50.864;12.766;2023-06-10T00:43:56;10.47;;;9.47;;
14241;SDS011;7205;50.864;12.766;2023-06-10T00:46:23;10.50;;;8.30;;
14241;SDS011;7205;50.864;12.766;2023-06-10T00:48:54;8.33;;;7.53;;
14241;SDS011;7205;50.864;12.766;2023-06-10T00:51:21;8.03;;;7.23;;
14241;SDS011;7205;50.864;12.766;2023-06-10T00:53:50;8.17;;;7.43;;
14241;SDS011;7205;50.864;12.766;2023-06-10T00:56:18;7.93;;;7.33;;
14241;SDS011;7205;50.864;12.766;2023-06-10T00:58:47;9.07;;;7.30;;
14241;SDS011;7205;50.864;12.766;2023-06-10T01:01:14;8.60;;;7.70;;
14241;SDS011;7205;50.864;12.766;2023-06-10T01:03:41;9.50;;;8.57;;
14241;SDS011;7205;50.864;12.766;2023-06-10T01:06:09;9.63;;;8.00;;
14241;SDS011;7205;50.864;12.766;2023-06-10T01:08:46;9.43;;;7.73;;
14241;SDS011;7205;50.864;12.766;2023-06-10T01:11:23;11.40;;;8.60;;
14241;SDS011;7205;50.864;12.766;2023-06-10T01:13:54;9.10;;;7.50;;
14241;SDS011;7205;50.864;12.766;2023-06-10T01:16:22;8.03;;;7.30;;
14241;SDS011;7205;50.864;12.766;2023-06-10T01:18:50;8.47;;;7.60;;
14241;SDS011;7205;50.864;12.766;2023-06-10T01:21:20;9.63;;;8.50;;
14241;SDS011;7205;50.864;12.766;2023-06-10T01:23:49;11.30;;;7.60;;
14241;SDS011;7205;50.864;12.766;2023-06-10T01:26:17;8.00;;;7.10;;
14241;SDS011;7205;50.864;12.766;2023-06-10T01:28:51;8.30;;;7.50;;
14241;SDS011;7205;50.864;12.766;2023-06-10T01:31:25;8.67;;;7.97;;
14241;SDS011;7205;50.864;12.766;2023-06-10T01:34:01;8.60;;;7.90;;
14241;SDS011;7205;50.864;12.766;2023-06-10T01:36:35;9.00;;;8.13;;
14241;SDS011;7205;50.864;12.766;2023-06-10T01:39:06;10.07;;;8.33;;
14241;SDS011;7205;50.864;12.766;2023-06-10T01:41:35;10.17;;;8.20;;
14241;SDS011;7205;50.864;12.766;2023-06-10T01:44:05;9.33;;;8.47;;
14241;SDS011;7205;50.864;12.766;2023-06-10T01:46:31;9.17;;;8.47;;
14241;SDS011;7205;50.864;12.766;2023-06-10T01:48:58;9.53;;;8.47;;
14241;SDS011;7205;50.864;12.766;2023-06-10T01:51:25;9.87;;;8.87;;
14241;SDS011;7205;50.864;12.766;2023-06-10T01:53:53;8.80;;;7.90;;
14241;SDS011;7205;50.864;12.766;2023-06-10T01:56:20;9.00;;;8.20;;
14241;SDS011;7205;50.864;12.766;2023-06-10T01:58:48;8.47;;;7.70;;
14241;SDS011;7205;50.864;12.766;2023-06-10T02:01:14;8.63;;;7.83;;
14241;SDS011;7205;50.864;12.766;2023-06-10T02:03:41;8.60;;;7.73;;
14241;SDS011;7205;50.864;12.766;2023-06-10T02:06:08;9.47;;;8.67;;
14241;SDS011;7205;50.864;12.766;2023-06-10T02:08:35;8.73;;;7.93;;
14241;SDS011;7205;50.864;12.766;2023-06-10T02:11:03;9.33;;;8.33;;
14241;SDS011;7205;50.864;12.766;2023-06-10T02:13:30;9.77;;;8.60;;
14241;SDS011;7205;50.864;12.766;2023-06-10T02:15:57;8.43;;;7.83;;
14241;SDS011;7205;50.864;12.766;2023-06-10T02:18:28;9.10;;;8.27;;
14241;SDS011;7205;50.864;12.766;2023-06-10T02:20:55;9.80;;;8.50;;
14241;SDS011;7205;50.864;12.766;2023-06-10T02:23:22;9.43;;;8.53;;
14241;SDS011;7205;50.864;12.766;2023-06-10T02:25:54;10.50;;;9.20;;
14241;SDS011;7205;50.864;12.766;2023-06-10T02:28:22;9.63;;;8.37;;
14241;SDS011;7205;50.864;12.766;2023-06-10T02:30:49;9.63;;;8.83;;
14241;SDS011;7205;50.864;12.766;2023-06-10T02:33:16;9.43;;;8.53;;
14241;SDS011;7205;50.864;12.766;2023-06-10T02:35:43;10.83;;;8.77;;
14241;SDS011;7205;50.864;12.766;2023-06-10T02:38:10;9.60;;;8.70;;
14241;SDS011;7205;50.864;12.766;2023-06-10T02:40:37;9.83;;;9.10;;
14241;SDS011;7205;50.864;12.766;2023-06-10T02:43:06;9.53;;;8.53;;
14241;SDS011;7205;50.864;12.766;2023-06-10T02:45:36;9.37;;;8.30;;
14241;SDS011;7205;50.864;12.766;2023-06-10T02:48:03;10.30;;;9.03;;
14241;SDS011;7205;50.864;12.766;2023-06-10T02:50:32;9.83;;;8.80;;
14241;SDS011;7205;50.864;12.766;2023-06-10T02:53:07;9.77;;;8.87;;
14241;SDS011;7205;50.864;12.766;2023-06-10T02:55:37;9.83;;;8.93;;
14241;SDS011;7205;50.864;12.766;2023-06-10T02:58:08;9.27;;;8.40;;
14241;SDS011;7205;50.864;12.766;2023-06-10T03:00:38;10.33;;;9.17;;
14241;SDS011;7205;50.864;12.766;2023-06-10T03:03:06;11.53;;;10.10;;
14241;SDS011;7205;50.864;12.766;2023-06-10T03:05:42;9.20;;;8.40;;
14241;SDS011;7205;50.864;12.766;2023-06-10T03:08:12;9.53;;;8.60;;
14241;SDS011;7205;50.864;12.766;2023-06-10T03:10:42;12.93;;;8.27;;
14241;SDS011;7205;50.864;12.766;2023-06-10T03:13:12;9.10;;;8.40;;
14241;SDS011;7205;50.864;12.766;2023-06-10T03:15:43;9.60;;;8.70;;
14241;SDS011;7205;50.864;12.766;2023-06-10T03:18:16;9.13;;;8.20;;
14241;SDS011;7205;50.864;12.766;2023-06-10T03:20:44;9.23;;;8.33;;
14241;SDS011;7205;50.864;12.766;2023-06-10T03:23:11;8.90;;;8.20;;
14241;SDS011;7205;50.864;12.766;2023-06-10T03:25:41;10.33;;;8.03;;
14241;SDS011;7205;50.864;12.766;2023-06-10T03:28:12;8.37;;;7.67;;
14241;SDS011;7205;50.864;12.766;2023-06-10T03:30:39;9.47;;;7.33;;
14241;SDS011;7205;50.864;12.766;2023-06-10T03:33:08;8.37;;;7.60;;
14241;SDS011;7205;50.864;12.766;2023-06-10T03:35:35;8.50;;;7.70;;
14241;SDS011;7205;50.864;12.766;2023-06-10T03:38:04;7.83;;;7.13;;
14241;SDS011;7205;50.864;12.766;2023-06-10T03:40:31;7.83;;;7.23;;
14241;SDS011;7205;50.864;12.766;2023-06-10T03:43:01;10.17;;;7.17;;
14241;SDS011;7205;50.864;12.766;2023-06-10T03:45:29;8.27;;;7.57;;
14241;SDS011;7205;50.864;12.766;2023-06-10T03:47:57;7.53;;;6.93;;
14241;SDS011;7205;50.864;12.766;2023-06-10T03:50:32;8.70;;;7.87;;
14241;SDS011;7205;50.864;12.766;2023-06-10T03:52:59;7.60;;;6.93;;
14241;SDS011;7205;50.864;12.766;2023-06-10T03:55:27;7.83;;;7.20;;
14241;SDS011;7205;50.864;12.766;2023-06-10T03:57:55;10.80;;;7.77;;
14241;SDS011;7205;50.864;12.766;2023-06-10T04:00:21;8.80;;;7.03;;
14241;SDS011;7205;50.864;12.766;2023-06-10T04:02:48;7.57;;;6.87;;
14241;SDS011;7205;50.864;12.766;2023-06-10T04:05:27;7.77;;;6.97;;
14241;SDS011;7205;50.864;12.766;2023-06-10T04:07:58;7.90;;;7.20;;
14241;SDS011;7205;50.864;12.766;2023-06-10T04:10:25;8.90;;;6.80;;
14241;SDS011;7205;50.864;12.766;2023-06-10T04:12:53;8.47;;;7.03;;
14241;SDS011;7205;50.864;12.766;2023-06-10T04:15:21;7.70;;;7.07;;
14241;SDS011;7205;50.864;12.766;2023-06-10T04:17:48;8.47;;;7.63;;
14241;SDS011;7205;50.864;12.766;2023-06-10T04:20:16;7.83;;;7.00;;
14241;SDS011;7205;50.864;12.766;2023-06-10T04:22:46;9.43;;;7.57;;
14241;SDS011;7205;50.864;12.766;2023-06-10T04:25:16;8.23;;;7.43;;
14241;SDS011;7205;50.864;12.766;2023-06-10T04:27:44;8.07;;;7.37;;
14241;SDS011;7205;50.864;12.766;2023-06-10T04:30:12;8.20;;;7.50;;
14241;SDS011;7205;50.864;12.766;2023-06-10T04:32:40;8.10;;;7.43;;
14241;SDS011;7205;50.864;12.766;2023-06-10T04:35:13;7.57;;;6.90;;
14241;SDS011;7205;50.864;12.766;2023-06-10T04:37:40;10.43;;;6.63;;
14241;SDS011;7205;50.864;12.766;2023-06-10T04:40:08;10.97;;;7.60;;
14241;SDS011;7205;50.864;12.766;2023-06-10T04:42:37;8.20;;;6.87;;
14241;SDS011;7205;50.864;12.766;2023-06-10T04:45:08;7.00;;;6.50;;
14241;SDS011;7205;50.864;12.766;2023-06-10T04:47:37;10.03;;;7.60;;
14241;SDS011;7205;50.864;12.766;2023-06-10T04:50:06;10.70;;;6.97;;
14241;SDS011;7205;50.864;12.766;2023-06-10T04:52:33;8.77;;;8.00;;
14241;SDS011;7205;50.864;12.766;2023-06-10T04:55:00;8.40;;;7.70;;
14241;SDS011;7205;50.864;12.766;2023-06-10T04:57:27;8.77;;;7.23;;
14241;SDS011;7205;50.864;12.766;2023-06-10T04:59:55;7.80;;;7.20;;
14241;SDS011;7205;50.864;12.766;2023-06-10T05:02:22;8.83;;;7.27;;
14241;SDS011;7205;50.864;12.766;2023-06-10T05:04:52;8.03;;;7.23;;
14241;SDS011;7205;50.864;12.766;2023-06-10T05:07:20;7.70;;;7.10;;
14241;SDS011;7205;50.864;12.766;2023-06-10T05:09:47;11.50;;;9.33;;
14241;SDS011;7205;50.864;12.766;2023-06-10T05:12:14;10.07;;;8.93;;
14241;SDS011;7205;50.864;12.766;2023-06-10T05:14:40;9.30;;;8.33;;
14241;SDS011;7205;50.864;12.766;2023-06-10T05:17:09;8.83;;;8.03;;
14241;SDS011;7205;50.864;12.766;2023-06-10T05:19:35;9.50;;;8.53;;
14241;SDS011;7205;50.864;12.766;2023-06-10T05:22:03;9.13;;;8.33;;
14241;SDS011;7205;50.864;12.766;2023-06-10T05:24:32;10.00;;;7.97;;
14241;SDS011;7205;50.864;12.766;2023-06-10T05:27:01;9.97;;;8.00;;
14241;SDS011;7205;50.864;12.766;2023-06-10T05:29:28;9.27;;;8.43;;
14241;SDS011;7205;50.864;12.766;2023-06-10T05:31:55;8.67;;;7.87;;
14241;SDS011;7205;50.864;12.766;2023-06-10T05:34:26;10.30;;;8.23;;
14241;SDS011;7205;50.864;12.766;2023-06-10T05:36:53;8.73;;;8.03;;
14241;SDS011;7205;50.864;12.766;2023-06-10T05:39:23;11.50;;;9.57;;
14241;SDS011;7205;50.864;12.766;2023-06-10T05:41:50;9.17;;;8.23;;
14241;SDS011;7205;50.864;12.766;2023-06-10T05:44:19;8.33;;;7.63;;
14241;SDS011;7205;50.864;12.766;2023-06-10T05:46:48;8.57;;;7.77;;
14241;SDS011;7205;50.864;12.766;2023-06-10T05:49:15;8.73;;;7.77;;
14241;SDS011;7205;50.864;12.766;2023-06-10T05:51:43;10.70;;;7.93;;
14241;SDS011;7205;50.864;12.766;2023-06-10T05:54:10;8.83;;;7.47;;
14241;SDS011;7205;50.864;12.766;2023-06-10T05:56:37;8.83;;;8.00;;
14241;SDS011;7205;50.864;12.766;2023-06-10T05:59:04;10.60;;;8.67;;
14241;SDS011;7205;50.864;12.766;2023-06-10T06:01:34;8.20;;;7.50;;
14241;SDS011;7205;50.864;12.766;2023-06-10T06:04:00;8.83;;;7.93;;
14241;SDS011;7205;50.864;12.766;2023-06-10T06:06:27;8.63;;;7.83;;
14241;SDS011;7205;50.864;12.766;2023-06-10T06:08:55;9.77;;;7.30;;
14241;SDS011;7205;50.864;12.766;2023-06-10T06:11:22;8.53;;;7.73;;
14241;SDS011;7205;50.864;12.766;2023-06-10T06:13:51;8.23;;;7.63;;
14241;SDS011;7205;50.864;12.766;2023-06-10T06:16:17;8.53;;;7.77;;
14241;SDS011;7205;50.864;12.766;2023-06-10T06:18:44;7.80;;;7.00;;
14241;SDS011;7205;50.864;12.766;2023-06-10T06:21:11;8.23;;;7.50;;
14241;SDS011;7205;50.864;12.766;2023-06-10T06:23:38;7.90;;;7.30;;
14241;SDS011;7205;50.864;12.766;2023-06-10T06:26:06;8.17;;;7.43;;
14241;SDS011;7205;50.864;12.766;2023-06-10T06:28:33;8.00;;;7.30;;
14241;SDS011;7205;50.864;12.766;2023-06-10T06:31:00;8.73;;;7.73;;
14241;SDS011;7205;50.864;12.766;2023-06-10T06:33:27;8.00;;;7.30;;
14241;SDS011;7205;50.864;12.766;2023-06-10T06:35:54;8.37;;;7.30;;
14241;SDS011;7205;50.864;12.766;2023-06-10T06:38:21;8.67;;;7.70;;
14241;SDS011;7205;50.864;12.766;2023-06-10T06:40:48;8.20;;;7.40;;
14241;SDS011;7205;50.864;12.766;2023-06-10T06:43:16;7.70;;;7.00;;
14241;SDS011;7205;50.864;12.766;2023-06-10T06:45:52;7.30;;;6.47;;
14241;SDS011;7205;50.864;12.766;2023-06-10T06:48:19;7.77;;;7.00;;
14241;SDS011;7205;50.864;12.766;2023-06-10T06:50:47;8.77;;;7.00;;
14241;SDS011;7205;50.864;12.766;2023-06-10T06:53:16;8.30;;;7.43;;
14241;SDS011;7205;50.864;12.766;2023-06-10T06:55:43;8.27;;;7.00;;
14241;SDS011;7205;50.864;12.766;2023-06-10T06:58:10;8.33;;;7.53;;
14241;SDS011;7205;50.864;12.766;2023-06-10T07:00:38;7.93;;;7.17;;
14241;SDS011;7205;50.864;12.766;2023-06-10T07:03:05;10.70;;;7.40;;
14241;SDS011;7205;50.864;12.766;2023-06-10T07:05:32;7.27;;;6.57;;
14241;SDS011;7205;50.864;12.766;2023-06-10T07:07:59;7.43;;;6.43;;
14241;SDS011;7205;50.864;12.766;2023-06-10T07:10:26;7.83;;;7.13;;
14241;SDS011;7205;50.864;12.766;2023-06-10T07:12:53;8.20;;;7.40;;
14241;SDS011;7205;50.864;12.766;2023-06-10T07:15:20;9.67;;;7.37;;
14241;SDS011;7205;50.864;12.766;2023-06-10T07:17:50;8.70;;;7.80;;
14241;SDS011;7205;50.864;12.766;2023-06-10T07:20:20;8.60;;;7.43;;
14241;SDS011;7205;50.864;12.766;2023-06-10T07:22:53;8.73;;;7.30;;
14241;SDS011;7205;50.864;12.766;2023-06-10T07:25:21;6.77;;;6.27;;
14241;SDS011;7205;50.864;12.766;2023-06-10T07:27:53;7.47;;;6.87;;
14241;SDS011;7205;50.864;12.766;2023-06-10T07:30:23;7.23;;;6.63;;
14241;SDS011;7205;50.864;12.766;2023-06-10T07:32:58;7.40;;;6.70;;
14241;SDS011;7205;50.864;12.766;2023-06-10T07:35:28;7.80;;;7.03;;
14241;SDS011;7205;50.864;12.766;2023-06-10T07:38:01;7.00;;;6.50;;
14241;SDS011;7205;50.864;12.766;2023-06-10T07:40:29;7.53;;;6.83;;
14241;SDS011;7205;50.864;12.766;2023-06-10T07:42:56;8.87;;;6.53;;
14241;SDS011;7205;50.864;12.766;2023-06-10T07:45:23;7.60;;;6.80;;
14241;SDS011;7205;50.864;12.766;2023-06-10T07:48:14;7.83;;;6.60;;
14241;SDS011;7205;50.864;12.766;2023-06-10T07:50:50;7.33;;;6.73;;
14241;SDS011;7205;50.864;12.766;2023-06-10T07:53:23;6.83;;;6.13;;
14241;SDS011;7205;50.864;12.766;2023-06-10T07:56:11;6.97;;;6.37;;
14241;SDS011;7205;50.864;12.766;2023-06-10T07:58:40;7.83;;;6.17;;
14241;SDS011;7205;50.864;12.766;2023-06-10T08:01:07;6.73;;;6.13;;
14241;SDS011;7205;50.864;12.766;2023-06-10T08:03:44;7.10;;;6.40;;
14241;SDS011;7205;50.864;12.766;2023-06-10T08:06:12;6.73;;;6.03;;
14241;SDS011;7205;50.864;12.766;2023-06-10T08:08:52;6.67;;;6.07;;
14241;SDS011;7205;50.864;12.766;2023-06-10T08:11:23;6.40;;;5.90;;
14241;SDS011;7205;50.864;12.766;2023-06-10T08:14:00;8.47;;;5.80;;
14241;SDS011;7205;50.864;12.766;2023-06-10T08:16:35;6.47;;;5.87;;
14241;SDS011;7205;50.864;12.766;2023-06-10T08:19:05;6.40;;;5.80;;
14241;SDS011;7205;50.864;12.766;2023-06-10T08:21:34;6.47;;;5.50;;
14241;SDS011;7205;50.864;12.766;2023-06-10T08:26:47;6.33;;;5.93;;
14241;SDS011;7205;50.864;12.766;2023-06-10T08:29:15;9.07;;;6.03;;
14241;SDS011;7205;50.864;12.766;2023-06-10T08:31:44;6.17;;;5.20;;
14241;SDS011;7205;50.864;12.766;2023-06-10T08:34:13;5.80;;;5.40;;
14241;SDS011;7205;50.864;12.766;2023-06-10T08:36:46;5.80;;;5.37;;
14241;SDS011;7205;50.864;12.766;2023-06-10T08:39:20;5.53;;;5.13;;
14241;SDS011;7205;50.864;12.766;2023-06-10T08:41:51;5.28;;;4.78;;
14241;SDS011;7205;50.864;12.766;2023-06-10T08:44:33;6.13;;;5.13;;
14241;SDS011;7205;50.864;12.766;2023-06-10T08:50:42;5.60;;;5.10;;
14241;SDS011;7205;50.864;12.766;2023-06-10T08:57:05;5.15;;;4.57;;
14241;SDS011;7205;50.864;12.766;2023-06-10T08:59:32;5.50;;;5.10;;
14241;SDS011;7205;50.864;12.766;2023-06-10T09:01:59;5.70;;;5.20;;
14241;SDS011;7205;50.864;12.766;2023-06-10T09:04:28;6.10;;;5.70;;
14241;SDS011;7205;50.864;12.766;2023-06-10T09:06:57;7.03;;;5.10;;
14241;SDS011;7205;50.864;12.766;2023-06-10T09:09:25;5.30;;;4.80;;
14241;SDS011;7205;50.864;12.766;2023-06-10T09:11:55;5.88;;;5.43;;
14241;SDS011;7205;50.864;12.766;2023-06-10T09:14:22;5.60;;;4.65;;
14241;SDS011;7205;50.864;12.766;2023-06-10T09:16:58;5.80;;;4.40;;
14241;SDS011;7205;50.864;12.766;2023-06-10T09:19:25;5.60;;;4.70;;
14241;SDS011;7205;50.864;12.766;2023-06-10T09:21:54;6.03;;;4.82;;
14241;SDS011;7205;50.864;12.766;2023-06-10T09:24:23;7.28;;;5.20;;
14241;SDS011;7205;50.864;12.766;2023-06-10T09:26:50;5.60;;;4.70;;
14241;SDS011;7205;50.864;12.766;2023-06-10T09:29:28;5.10;;;4.70;;
14241;SDS011;7205;50.864;12.766;2023-06-10T09:31:55;4.97;;;4.57;;
14241;SDS011;7205;50.864;12.766;2023-06-10T09:34:25;5.10;;;4.70;;
14241;SDS011;7205;50.864;12.766;2023-06-10T09:36:52;5.30;;;4.95;;
14241;SDS011;7205;50.864;12.766;2023-06-10T09:39:20;5.20;;;4.35;;
14241;SDS011;7205;50.864;12.766;2023-06-10T09:41:49;4.72;;;4.32;;
14241;SDS011;7205;50.864;12.766;2023-06-10T09:44:16;5.63;;;4.15;;
14241;SDS011;7205;50.864;12.766;2023-06-10T09:46:45;5.13;;;4.65;;
14241;SDS011;7205;50.864;12.766;2023-06-10T09:49:13;4.97;;;4.57;;
14241;SDS011;7205;50.864;12.766;2023-06-10T09:51:48;5.05;;;4.65;;
14241;SDS011;7205;50.864;12.766;2023-06-10T09:54:17;4.50;;;3.97;;
14241;SDS011;7205;50.864;12.766;2023-06-10T09:56:48;4.88;;;4.43;;
14241;SDS011;7205;50.864;12.766;2023-06-10T09:59:15;5.60;;;4.47;;
14241;SDS011;7205;50.864;12.766;2023-06-10T10:01:42;4.78;;;4.38;;
14241;SDS011;7205;50.864;12.766;2023-06-10T10:04:09;4.50;;;4.10;;
14241;SDS011;7205;50.864;12.766;2023-06-10T10:06:36;5.53;;;3.80;;
14241;SDS011;7205;50.864;12.766;2023-06-10T10:09:03;4.40;;;4.00;;
14241;SDS011;7205;50.864;12.766;2023-06-10T10:11:30;4.18;;;3.78;;
14241;SDS011;7205;50.864;12.766;2023-06-10T10:14:01;5.85;;;3.60;;
14241;SDS011;7205;50.864;12.766;2023-06-10T10:16:33;3.60;;;3.20;;
14241;SDS011;7205;50.864;12.766;2023-06-10T10:19:07;6.97;;;3.42;;
14241;SDS011;7205;50.864;12.766;2023-06-10T10:21:37;4.45;;;3.50;;
14241;SDS011;7205;50.864;12.766;2023-06-10T10:24:12;3.67;;;3.38;;
14241;SDS011;7205;50.864;12.766;2023-06-10T10:26:44;3.40;;;2.95;;
14241;SDS011;7205;50.864;12.766;2023-06-10T10:29:16;4.47;;;3.50;;
14241;SDS011;7205;50.864;12.766;2023-06-10T10:31:50;4.20;;;3.90;;
14241;SDS011;7205;50.864;12.766;2023-06-10T10:34:19;5.13;;;4.00;;
14241;SDS011;7205;50.864;12.766;2023-06-10T10:36:51;4.30;;;4.00;;
14241;SDS011;7205;50.864;12.766;2023-06-10T10:39:18;4.38;;;4.07;;
14241;SDS011;7205;50.864;12.766;2023-06-10T10:41:45;4.30;;;4.00;;
14241;SDS011;7205;50.864;12.766;2023-06-10T10:44:15;4.30;;;3.90;;
14241;SDS011;7205;50.864;12.766;2023-06-10T10:46:42;4.35;;;4.00;;
14241;SDS011;7205;50.864;12.766;2023-06-10T10:49:10;3.95;;;3.65;;
14241;SDS011;7205;50.864;12.766;2023-06-10T10:51:54;4.15;;;3.83;;
14241;SDS011;7205;50.864;12.766;2023-06-10T10:54:27;4.25;;;3.90;;
14241;SDS011;7205;50.864;12.766;2023-06-10T10:57:15;4.97;;;4.20;;
14241;SDS011;7205;50.864;12.766;2023-06-10T10:59:45;4.07;;;3.78;;
14241;SDS011;7205;50.864;12.766;2023-06-10T11:02:17;7.30;;;4.20;;
14241;SDS011;7205;50.864;12.766;2023-06-10T11:04:45;5.00;;;3.95;;
14241;SDS011;7205;50.864;12.766;2023-06-10T11:07:13;4.18;;;3.88;;
14241;SDS011;7205;50.864;12.766;2023-06-10T11:12:40;3.90;;;3.60;;
14241;SDS011;7205;50.864;12.766;2023-06-10T11:15:09;3.78;;;3.47;;
14241;SDS011;7205;50.864;12.766;2023-06-10T11:17:36;3.70;;;3.40;;
14241;SDS011;7205;50.864;12.766;2023-06-10T11:20:03;4.07;;;3.15;;
14241;SDS011;7205;50.864;12.766;2023-06-10T11:22:30;3.75;;;3.45;;
14241;SDS011;7205;50.864;12.766;2023-06-10T11:24:57;4.68;;;3.40;;
14241;SDS011;7205;50.864;12.766;2023-06-10T11:27:24;10.05;;;3.78;;
14241;SDS011;7205;50.864;12.766;2023-06-10T11:29:58;3.65;;;3.13;;
14241;SDS011;7205;50.864;12.766;2023-06-10T11:32:45;3.70;;;3.45;;
14241;SDS011;7205;50.864;12.766;2023-06-10T11:35:19;3.40;;;3.10;;
14241;SDS011;7205;50.864;12.766;2023-06-10T11:37:47;4.28;;;3.70;;
14241;SDS011;7205;50.864;12.766;2023-06-10T11:40:14;3.40;;;3.15;;
14241;SDS011;7205;50.864;12.766;2023-06-10T11:42:41;3.38;;;3.17;;
14241;SDS011;7205;50.864;12.766;2023-06-10T11:45:09;3.22;;;3.03;;
14241;SDS011;7205;50.864;12.766;2023-06-10T11:47:36;3.40;;;3.20;;
14241;SDS011;7205;50.864;12.766;2023-06-10T11:50:04;4.40;;;3.50;;
14241;SDS011;7205;50.864;12.766;2023-06-10T11:52:31;3.40;;;3.20;;
14241;SDS011;7205;50.864;12.766;2023-06-10T11:55:03;3.70;;;3.40;;
14241;SDS011;7205;50.864;12.766;2023-06-10T11:57:33;3.92;;;3.40;;
14241;SDS011;7205;50.864;12.766;2023-06-10T12:00:03;3.55;;;3.25;;
14241;SDS011;7205;50.864;12.766;2023-06-10T12:02:36;3.65;;;3.45;;
14241;SDS011;7205;50.864;12.766;2023-06-10T12:05:11;3.25;;;3.03;;
14241;SDS011;7205;50.864;12.766;2023-06-10T12:07:38;3.50;;;3.03;;
14241;SDS011;7205;50.864;12.766;2023-06-10T12:10:05;4.40;;;3.30;;
14241;SDS011;7205;50.864;12.766;2023-06-10T12:12:34;3.45;;;3.03;;
14241;SDS011;7205;50.864;12.766;2023-06-10T12:15:02;4.60;;;3.05;;
14241;SDS011;7205;50.864;12.766;2023-06-10T12:17:37;3.30;;;3.10;;
14241;SDS011;7205;50.864;12.766;2023-06-10T12:20:04;3.50;;;3.13;;
14241;SDS011;7205;50.864;12.766;2023-06-10T12:22:40;6.75;;;3.13;;
14241;SDS011;7205;50.864;12.766;2023-06-10T12:25:08;2.88;;;2.75;;
14241;SDS011;7205;50.864;12.766;2023-06-10T12:27:37;5.68;;;3.20;;
14241;SDS011;7205;50.864;12.766;2023-06-10T12:30:06;3.33;;;3.03;;
14241;SDS011;7205;50.864;12.766;2023-06-10T12:32:37;3.65;;;3.35;;
14241;SDS011;7205;50.864;12.766;2023-06-10T12:35:06;3.38;;;3.08;;
14241;SDS011;7205;50.864;12.766;2023-06-10T12:37:34;3.40;;;3.10;;
14241;SDS011;7205;50.864;12.766;2023-06-10T12:40:03;3.20;;;3.00;;
14241;SDS011;7205;50.864;12.766;2023-06-10T12:42:32;3.13;;;2.75;;
14241;SDS011;7205;50.864;12.766;2023-06-10T12:45:00;3.30;;;3.03;;
14241;SDS011;7205;50.864;12.766;2023-06-10T12:47:30;3.60;;;3.30;;
14241;SDS011;7205;50.864;12.766;2023-06-10T12:50:00;4.50;;;3.53;;
14241;SDS011;7205;50.864;12.766;2023-06-10T12:52:27;2.78;;;2.67;;
14241;SDS011;7205;50.864;12.766;2023-06-10T12:54:54;5.03;;;3.47;;
14241;SDS011;7205;50.864;12.766;2023-06-10T12:57:22;3.33;;;3.13;;
14241;SDS011;7205;50.864;12.766;2023-06-10T12:59:49;3.00;;;2.80;;
14241;SDS011;7205;50.864;12.766;2023-06-10T13:02:17;3.40;;;3.20;;
14241;SDS011;7205;50.864;12.766;2023-06-10T13:04:45;3.70;;;3.22;;
14241;SDS011;7205;50.864;12.766;2023-06-10T13:07:12;5.45;;;2.80;;
14241;SDS011;7205;50.864;12.766;2023-06-10T13:09:38;4.10;;;2.90;;
14241;SDS011;7205;50.864;12.766;2023-06-10T13:12:06;3.15;;;2.95;;
14241;SDS011;7205;50.864;12.766;2023-06-10T13:14:36;3.10;;;2.90;;
14241;SDS011;7205;50.864;12.766;2023-06-10T13:17:03;3.20;;;2.83;;
14241;SDS011;7205;50.864;12.766;2023-06-10T13:19:31;3.38;;;3.10;;
14241;SDS011;7205;50.864;12.766;2023-06-10T13:21:58;4.45;;;3.00;;
14241;SDS011;7205;50.864;12.766;2023-06-10T13:24:25;4.65;;;3.13;;
14241;SDS011;7205;50.864;12.766;2023-06-10T13:26:52;3.38;;;3.17;;
14241;SDS011;7205;50.864;12.766;2023-06-10T13:29:20;4.10;;;3.13;;
14241;SDS011;7205;50.864;12.766;2023-06-10T13:31:48;3.13;;;2.90;;
14241;SDS011;7205;50.864;12.766;2023-06-10T13:34:15;3.72;;;3.42;;
14241;SDS011;7205;50.864;12.766;2023-06-10T13:36:41;3.40;;;2.72;;
14241;SDS011;7205;50.864;12.766;2023-06-10T13:39:08;3.25;;;3.00;;
14241;SDS011;7205;50.864;12.766;2023-06-10T13:41:35;3.17;;;2.80;;
14241;SDS011;7205;50.864;12.766;2023-06-10T13:44:02;3.10;;;2.90;;
14241;SDS011;7205;50.864;12.766;2023-06-10T13:46:29;3.28;;;3.00;;
14241;SDS011;7205;50.864;12.766;2023-06-10T13:48:57;3.22;;;2.90;;
14241;SDS011;7205;50.864;12.766;2023-06-10T13:51:24;2.72;;;2.63;;
14241;SDS011;7205;50.864;12.766;2023-06-10T13:53:50;3.35;;;2.90;;
14241;SDS011;7205;50.864;12.766;2023-06-10T13:56:17;2.80;;;2.60;;
14241;SDS011;7205;50.864;12.766;2023-06-10T13:58:44;3.30;;;2.97;;
14241;SDS011;7205;50.864;12.766;2023-06-10T14:01:11;2.85;;;2.65;;
14241;SDS011;7205;50.864;12.766;2023-06-10T14:03:38;3.90;;;2.65;;
14241;SDS011;7205;50.864;12.766;2023-06-10T14:06:06;3.10;;;2.83;;
14241;SDS011;7205;50.864;12.766;2023-06-10T14:08:33;5.03;;;2.88;;
14241;SDS011;7205;50.864;12.766;2023-06-10T14:11:00;3.55;;;2.80;;
14241;SDS011;7205;50.864;12.766;2023-06-10T14:13:26;3.40;;;2.67;;
14241;SDS011;7205;50.864;12.766;2023-06-10T14:15:53;4.07;;;3.42;;
14241;SDS011;7205;50.864;12.766;2023-06-10T14:18:20;3.25;;;3.03;;
14241;SDS011;7205;50.864;12.766;2023-06-10T14:20:47;3.45;;;3.15;;
14241;SDS011;7205;50.864;12.766;2023-06-10T14:23:15;3.30;;;3.10;;
14241;SDS011;7205;50.864;12.766;2023-06-10T14:25:41;3.22;;;3.03;;
14241;SDS011;7205;50.864;12.766;2023-06-10T14:28:08;5.40;;;3.30;;
14241;SDS011;7205;50.864;12.766;2023-06-10T14:30:35;2.85;;;2.65;;
14241;SDS011;7205;50.864;12.766;2023-06-10T14:33:02;3.00;;;2.80;;
14241;SDS011;7205;50.864;12.766;2023-06-10T14:35:29;4.03;;;2.80;;
14241;SDS011;7205;50.864;12.766;2023-06-10T14:37:55;3.75;;;2.85;;
14241;SDS011;7205;50.864;12.766;2023-06-10T14:40:23;3.47;;;2.58;;
14241;SDS011;7205;50.864;12.766;2023-06-10T14:42:53;3.10;;;2.90;;
14241;SDS011;7205;50.864;12.766;2023-06-10T14:45:20;3.13;;;2.40;;
14241;SDS011;7205;50.864;12.766;2023-06-10T14:47:47;2.92;;;2.72;;
14241;SDS011;7205;50.864;12.766;2023-06-10T14:50:14;3.63;;;2.83;;
14241;SDS011;7205;50.864;12.766;2023-06-10T14:52:41;3.28;;;3.00;;
14241;SDS011;7205;50.864;12.766;2023-06-10T14:55:08;3.13;;;2.67;;
14241;SDS011;7205;50.864;12.766;2023-06-10T14:57:36;3.63;;;3.30;;
14241;SDS011;7205;50.864;12.766;2023-06-10T15:00:03;4.32;;;3.20;;
14241;SDS011;7205;50.864;12.766;2023-06-10T15:02:31;3.00;;;2.80;;
14241;SDS011;7205;50.864;12.766;2023-06-10T15:04:57;3.40;;;3.00;;
14241;SDS011;7205;50.864;12.766;2023-06-10T15:07:24;3.63;;;2.80;;
14241;SDS011;7205;50.864;12.766;2023-06-10T15:09:51;3.20;;;2.95;;